createdAt,value
2023-11-24T00:01:39.428Z,51.22
2023-11-24T00:04:07.953Z,51.53
2023-11-24T00:06:37.443Z,51.49
2023-11-24T00:09:04.435Z,51.47
2023-11-24T00:11:35.162Z,51.26
2023-11-24T00:14:09.034Z,51.04
2023-11-24T00:16:40.237Z,51.17
2023-11-24T00:19:08.852Z,51.12
2023-11-24T00:21:42.232Z,51.22
2023-11-24T00:24:10.442Z,50.93
2023-11-24T00:26:38.536Z,50.86
2023-11-24T00:29:06.756Z,50.83
2023-11-24T00:31:34.932Z,50.77
2023-11-24T00:34:03.218Z,50.73
2023-11-24T00:36:32.082Z,50.74
2023-11-24T00:39:01.485Z,50.69
2023-11-24T00:41:30.137Z,50.69
2023-11-24T00:43:58.292Z,50.56
2023-11-24T00:46:26.315Z,50.40
2023-11-24T00:48:54.351Z,50.53
2023-11-24T00:51:22.473Z,50.47
2023-11-24T00:53:50.726Z,50.35
2023-11-24T00:56:20.142Z,50.14
2023-11-24T00:58:49.741Z,50.55
2023-11-24T01:01:18.008Z,50.36
2023-11-24T01:03:46.558Z,50.51
2023-11-24T01:06:15.019Z,50.93
2023-11-24T01:08:45.894Z,51.21
2023-11-24T01:11:13.829Z,50.80
2023-11-24T01:13:47.166Z,51.12
2023-11-24T01:16:15.890Z,51.18
2023-11-24T01:18:43.966Z,51.29
2023-11-24T01:21:13.022Z,51.21
2023-11-24T01:23:43.205Z,51.26
2023-11-24T01:26:13.031Z,51.14
2023-11-24T01:28:41.413Z,51.24
2023-11-24T01:31:10.731Z,51.26
2023-11-24T01:33:39.669Z,51.25
2023-11-24T01:36:10.950Z,51.12
2023-11-24T01:38:41.734Z,51.27
2023-11-24T01:41:10.198Z,51.29
2023-11-24T01:43:39.014Z,50.85
2023-11-24T01:46:11.178Z,51.03
2023-11-24T01:48:39.292Z,51.25
2023-11-24T01:51:08.161Z,50.99
2023-11-24T01:53:36.349Z,51.10
2023-11-24T01:56:04.558Z,50.96
2023-11-24T01:58:32.736Z,50.97
2023-11-24T02:01:00.807Z,51.13
2023-11-24T02:03:30.327Z,50.94
2023-11-24T02:05:58.465Z,50.73
2023-11-24T02:08:26.579Z,50.69
2023-11-24T02:10:54.925Z,50.78
2023-11-24T02:13:26.803Z,50.60
2023-11-24T02:15:57.761Z,50.68
2023-11-24T02:18:26.630Z,50.77
2023-11-24T02:20:56.002Z,50.56
2023-11-24T02:23:25.711Z,50.54
2023-11-24T02:25:53.758Z,50.48
2023-11-24T02:28:21.716Z,50.35
2023-11-24T02:30:49.711Z,50.32
2023-11-24T02:33:20.065Z,50.17
2023-11-24T02:35:48.596Z,50.35
2023-11-24T02:38:16.682Z,50.02
2023-11-24T02:40:46.059Z,50.18
2023-11-24T02:43:13.998Z,50.01
2023-11-24T02:45:42.536Z,50.04
2023-11-24T02:48:11.962Z,49.93
2023-11-24T02:50:40.100Z,49.78
2023-11-24T02:53:08.089Z,49.96
2023-11-24T02:55:36.072Z,49.93
2023-11-24T02:58:05.670Z,49.94
2023-11-24T03:00:33.979Z,49.84
2023-11-24T03:03:03.341Z,49.66
2023-11-24T03:05:31.788Z,49.55
2023-11-24T03:07:59.780Z,49.68
2023-11-24T03:10:28.158Z,49.51
2023-11-24T03:12:56.137Z,49.57
2023-11-24T03:15:26.408Z,49.46
2023-11-24T03:17:54.449Z,49.51
2023-11-24T03:20:23.495Z,49.38
2023-11-24T03:22:51.452Z,49.36
2023-11-24T03:25:19.461Z,49.44
2023-11-24T03:27:47.480Z,49.36
2023-11-24T03:30:15.829Z,49.33
2023-11-24T03:32:49.559Z,49.19
2023-11-24T03:35:18.141Z,49.06
2023-11-24T03:37:46.116Z,50.59
2023-11-24T03:40:14.240Z,51.17
2023-11-24T03:42:42.820Z,50.53
2023-11-24T03:45:12.297Z,50.46
2023-11-24T03:47:40.928Z,50.07
2023-11-24T03:50:11.632Z,49.77
2023-11-24T03:52:39.724Z,49.67
2023-11-24T03:55:12.565Z,49.53
2023-11-24T03:57:45.338Z,49.75
2023-11-24T04:00:14.694Z,49.57
2023-11-24T04:02:43.800Z,50.16
2023-11-24T04:05:14.580Z,49.85
2023-11-24T04:07:42.664Z,49.91
2023-11-24T04:10:13.550Z,49.65
2023-11-24T04:12:51.003Z,49.70
2023-11-24T04:15:19.009Z,49.54
2023-11-24T04:17:47.979Z,49.60
2023-11-24T04:20:17.496Z,49.58
2023-11-24T04:22:45.557Z,49.45
2023-11-24T04:25:13.521Z,49.58
2023-11-24T04:27:41.501Z,49.44
2023-11-24T04:30:10.956Z,49.34
2023-11-24T04:32:42.670Z,49.47
2023-11-24T04:35:13.834Z,49.35
2023-11-24T04:37:43.185Z,49.38
2023-11-24T04:40:13.776Z,49.23
2023-11-24T04:42:41.723Z,49.21
2023-11-24T04:45:12.287Z,49.17
2023-11-24T04:47:43.314Z,49.05
2023-11-24T04:50:11.841Z,48.97
2023-11-24T04:52:39.883Z,48.98
2023-11-24T04:55:10.222Z,48.91
2023-11-24T04:57:38.339Z,48.87
2023-11-24T05:00:10.100Z,48.90
2023-11-24T05:02:38.136Z,48.70
2023-11-24T05:05:07.346Z,48.68
2023-11-24T05:07:35.573Z,48.74
2023-11-24T05:10:04.610Z,48.69
2023-11-24T05:12:34.201Z,48.54
2023-11-24T05:15:04.446Z,48.59
2023-11-24T05:17:32.484Z,48.34
2023-11-24T05:20:04.363Z,48.38
2023-11-24T05:22:32.376Z,48.35
2023-11-24T05:25:00.552Z,48.19
2023-11-24T05:27:28.596Z,48.25
2023-11-24T05:29:57.973Z,48.06
2023-11-24T05:32:25.950Z,48.18
2023-11-24T05:34:54.979Z,47.95
2023-11-24T05:37:22.985Z,47.91
2023-11-24T05:39:51.141Z,47.96
2023-11-24T05:42:19.185Z,47.96
2023-11-24T05:44:47.201Z,47.84
2023-11-24T05:47:16.538Z,47.77
2023-11-24T05:49:45.522Z,47.50
2023-11-24T05:52:16.771Z,47.59
2023-11-24T05:54:46.386Z,47.54
2023-11-24T05:57:14.499Z,47.57
2023-11-24T05:59:42.423Z,47.91
2023-11-24T06:02:11.093Z,47.65
2023-11-24T06:04:43.476Z,47.76
2023-11-24T06:07:11.641Z,47.76
2023-11-24T06:09:39.578Z,47.63
2023-11-24T06:12:10.414Z,47.58
2023-11-24T06:14:38.926Z,47.70
2023-11-24T06:17:07.861Z,47.56
2023-11-24T06:19:35.862Z,47.32
2023-11-24T06:22:05.700Z,47.49
2023-11-24T06:24:33.734Z,47.51
2023-11-24T06:27:01.701Z,47.50
2023-11-24T06:29:29.686Z,47.50
2023-11-24T06:31:57.717Z,47.47
2023-11-24T06:34:26.137Z,47.33
2023-11-24T06:36:54.250Z,47.31
2023-11-24T06:39:23.617Z,47.37
2023-11-24T06:41:51.637Z,47.39
2023-11-24T06:44:20.114Z,47.15
2023-11-24T06:46:48.257Z,47.43
2023-11-24T06:49:19.265Z,47.23
2023-11-24T06:51:49.614Z,47.24
2023-11-24T06:54:18.853Z,47.03
2023-11-24T06:56:48.276Z,49.55
2023-11-24T06:59:19.406Z,49.93
2023-11-24T07:01:47.542Z,50.19
2023-11-24T07:04:19.958Z,50.20
2023-11-24T07:06:48.124Z,49.63
2023-11-24T07:09:18.619Z,49.61
2023-11-24T07:11:49.497Z,49.43
2023-11-24T07:14:17.594Z,49.26
2023-11-24T07:16:45.569Z,49.32
2023-11-24T07:19:13.603Z,48.96
2023-11-24T07:21:41.696Z,48.90
2023-11-24T07:24:10.050Z,48.84
2023-11-24T07:26:38.072Z,48.76
2023-11-24T07:29:10.151Z,48.60
2023-11-24T07:31:38.146Z,48.48
2023-11-24T07:34:06.332Z,48.64
2023-11-24T07:36:36.936Z,48.52
2023-11-24T07:39:05.556Z,48.67
2023-11-24T07:41:33.694Z,48.73
2023-11-24T07:44:08.506Z,48.25
2023-11-24T07:46:37.995Z,48.31
2023-11-24T07:49:06.258Z,48.05
2023-11-24T07:51:34.229Z,47.98
2023-11-24T07:54:04.212Z,48.01
2023-11-24T07:56:33.005Z,47.88
2023-11-24T07:59:01.085Z,47.77
2023-11-24T08:01:31.763Z,47.71
2023-11-24T08:04:01.562Z,47.69
2023-11-24T08:06:30.874Z,47.67
2023-11-24T08:09:04.566Z,47.71
2023-11-24T08:11:33.241Z,47.64
2023-11-24T08:14:01.709Z,47.61
2023-11-24T08:16:29.843Z,47.44
2023-11-24T08:18:57.985Z,47.45
2023-11-24T08:21:27.359Z,47.30
2023-11-24T08:23:55.714Z,47.52
2023-11-24T08:26:23.749Z,48.77
2023-11-24T08:28:51.841Z,48.27
2023-11-24T08:31:20.682Z,47.41
2023-11-24T08:33:50.105Z,47.31
2023-11-24T08:36:18.200Z,47.49
2023-11-24T08:38:47.514Z,47.37
2023-11-24T08:41:26.825Z,47.32
2023-11-24T08:44:05.855Z,47.34
2023-11-24T08:46:34.179Z,47.20
2023-11-24T08:49:03.213Z,47.18
2023-11-24T08:51:31.271Z,47.08
2023-11-24T08:54:00.572Z,47.07
2023-11-24T08:56:29.925Z,47.00
2023-11-24T08:58:57.867Z,46.97
2023-11-24T09:01:25.927Z,47.01
2023-11-24T09:03:55.602Z,46.80
2023-11-24T09:06:28.117Z,46.73
2023-11-24T09:08:57.870Z,46.61
2023-11-24T09:11:27.841Z,46.55
2023-11-24T09:13:55.926Z,46.52
2023-11-24T09:16:24.111Z,46.41
2023-11-24T09:18:52.238Z,46.41
2023-11-24T09:21:20.241Z,46.29
2023-11-24T09:23:48.668Z,46.27
2023-11-24T09:26:16.646Z,46.27
2023-11-24T09:28:45.922Z,46.35
2023-11-24T09:31:17.150Z,46.38
2023-11-24T09:33:45.166Z,46.29
2023-11-24T09:36:14.065Z,46.42
2023-11-24T09:38:42.428Z,46.27
2023-11-24T09:41:12.760Z,46.13
2023-11-24T09:43:41.084Z,45.99
2023-11-24T09:46:12.038Z,46.19
2023-11-24T09:48:43.264Z,46.25
2023-11-24T09:51:18.121Z,46.04
2023-11-24T09:53:46.981Z,46.19
2023-11-24T09:56:15.014Z,45.97
2023-11-24T09:58:43.556Z,46.10
2023-11-24T10:01:17.618Z,46.01
2023-11-24T10:03:51.746Z,45.76
2023-11-24T10:06:20.195Z,45.92
2023-11-24T10:08:48.795Z,45.73
2023-11-24T10:11:24.117Z,45.85
2023-11-24T10:13:52.335Z,45.75
2023-11-24T10:16:23.356Z,45.83
2023-11-24T10:18:52.673Z,45.76
2023-11-24T10:21:29.916Z,45.64
2023-11-24T10:24:02.191Z,45.59
2023-11-24T10:26:30.773Z,45.65
2023-11-24T10:28:59.361Z,45.58
2023-11-24T10:31:31.927Z,45.51
2023-11-24T10:34:01.373Z,45.70
2023-11-24T10:36:32.596Z,45.57
2023-11-24T10:39:05.630Z,45.52
2023-11-24T10:41:40.392Z,45.26
2023-11-24T10:44:12.483Z,45.32
2023-11-24T10:46:47.083Z,45.19
2023-11-24T10:49:22.354Z,43.72
2023-11-24T10:52:00.145Z,45.66
2023-11-24T10:54:35.189Z,46.97
2023-11-24T10:57:07.363Z,47.29
2023-11-24T10:59:36.254Z,47.98
2023-11-24T11:02:10.553Z,47.35
2023-11-24T11:04:45.430Z,47.57
2023-11-24T11:07:27.746Z,48.25
2023-11-24T11:10:00.061Z,49.14
2023-11-24T11:12:42.299Z,47.49
2023-11-24T11:15:12.077Z,47.84
2023-11-24T11:17:42.642Z,48.19
2023-11-24T11:20:16.362Z,48.69
2023-11-24T11:22:45.127Z,49.26
2023-11-24T11:25:39.759Z,47.77
2023-11-24T11:28:36.632Z,47.48
2023-11-24T11:31:23.650Z,47.09
2023-11-24T11:33:53.991Z,47.04
2023-11-24T11:36:26.859Z,46.95
2023-11-24T11:38:55.778Z,46.06
2023-11-24T11:41:42.253Z,48.61
2023-11-24T11:44:25.952Z,47.57
2023-11-24T11:47:14.349Z,47.23
2023-11-24T11:49:44.831Z,47.53
2023-11-24T11:52:13.486Z,47.42
2023-11-24T11:54:44.704Z,47.62
2023-11-24T11:57:13.947Z,48.50
2023-11-24T11:59:48.166Z,47.74
2023-11-24T12:02:19.474Z,48.26
2023-11-24T12:04:52.401Z,47.85
2023-11-24T12:07:23.825Z,47.61
2023-11-24T12:09:52.479Z,47.47
2023-11-24T12:12:24.067Z,47.40
2023-11-24T12:14:55.411Z,47.10
2023-11-24T12:17:25.054Z,47.54
2023-11-24T12:19:55.668Z,47.16
2023-11-24T12:22:29.500Z,46.73
2023-11-24T12:24:57.879Z,46.83
2023-11-24T12:27:28.495Z,46.55
2023-11-24T12:29:56.574Z,46.68
2023-11-24T12:32:27.830Z,46.64
2023-11-24T12:35:01.065Z,47.19
2023-11-24T12:37:30.709Z,47.82
2023-11-24T12:39:58.887Z,46.88
2023-11-24T12:42:30.745Z,46.46
2023-11-24T12:45:00.338Z,46.67
2023-11-24T12:50:03.093Z,46.74
2023-11-24T12:52:33.000Z,46.31
2023-11-24T12:55:02.900Z,46.26
2023-11-24T12:57:31.036Z,46.33
2023-11-24T13:00:06.909Z,46.09
2023-11-24T13:02:38.958Z,46.16
2023-11-24T13:05:09.959Z,45.90
2023-11-24T13:07:38.243Z,46.02
2023-11-24T13:10:11.254Z,46.06
2023-11-24T13:12:40.376Z,46.30
2023-11-24T13:15:10.569Z,45.84
2023-11-24T13:17:39.516Z,45.32
2023-11-24T13:20:12.317Z,45.50
2023-11-24T13:22:40.966Z,45.32
2023-11-24T13:25:10.736Z,45.24
2023-11-24T13:27:39.671Z,45.34
2023-11-24T13:30:12.848Z,45.86
2023-11-24T13:32:41.915Z,45.69
2023-11-24T13:35:15.232Z,45.98
2023-11-24T13:37:44.237Z,45.58
2023-11-24T13:40:14.096Z,45.96
2023-11-24T13:42:43.031Z,45.68
2023-11-24T13:45:13.796Z,45.82
2023-11-24T13:47:42.832Z,45.93
2023-11-24T13:50:12.962Z,45.73
2023-11-24T13:52:42.905Z,45.63
2023-11-24T13:55:13.576Z,45.57
2023-11-24T13:57:41.850Z,45.58
2023-11-24T14:00:12.545Z,45.51
2023-11-24T14:02:41.491Z,45.82
2023-11-24T14:05:15.207Z,45.99
2023-11-24T14:07:45.689Z,45.83
2023-11-24T14:10:17.366Z,45.98
2023-11-24T14:12:47.542Z,45.72
2023-11-24T14:15:16.028Z,45.67
2023-11-24T14:17:44.031Z,45.76
2023-11-24T14:20:14.643Z,46.01
2023-11-24T14:22:43.249Z,45.86
2023-11-24T14:25:12.351Z,46.14
2023-11-24T14:27:41.251Z,46.79
2023-11-24T14:30:10.433Z,46.30
2023-11-24T14:32:38.573Z,46.69
2023-11-24T14:35:08.029Z,46.74
2023-11-24T14:37:39.748Z,46.49
2023-11-24T14:40:20.000Z,46.49
2023-11-24T14:42:50.768Z,47.32
2023-11-24T14:45:21.387Z,46.68
2023-11-24T14:47:50.799Z,46.78
2023-11-24T14:50:20.539Z,46.68
2023-11-24T14:52:49.915Z,47.10
2023-11-24T14:55:18.271Z,47.72
2023-11-24T14:57:47.397Z,48.27
2023-11-24T15:00:30.502Z,48.59
2023-11-24T15:03:02.093Z,49.60
2023-11-24T15:05:34.418Z,50.43
2023-11-24T15:08:11.396Z,52.33
2023-11-24T15:10:43.218Z,51.62
2023-11-24T15:13:11.438Z,51.76
2023-11-24T15:15:41.033Z,51.54
2023-11-24T15:18:12.112Z,52.36
2023-11-24T15:20:41.282Z,52.62
2023-11-24T15:23:12.690Z,52.72
2023-11-24T15:25:49.011Z,52.20
2023-11-24T15:28:22.253Z,52.14
2023-11-24T15:30:50.814Z,52.35
2023-11-24T15:33:19.964Z,52.21
2023-11-24T15:35:49.834Z,51.98
2023-11-24T15:38:21.204Z,52.07
2023-11-24T15:40:51.849Z,51.62
2023-11-24T15:43:20.528Z,51.36
2023-11-24T15:45:54.769Z,51.18
2023-11-24T15:48:22.882Z,51.28
2023-11-24T15:50:50.932Z,51.08
2023-11-24T15:53:22.998Z,51.84
2023-11-24T15:55:52.441Z,51.24
2023-11-24T15:58:26.184Z,52.15
2023-11-24T16:00:57.557Z,52.10
2023-11-24T16:03:26.019Z,49.61
2023-11-24T16:05:56.240Z,50.67
2023-11-24T16:08:33.827Z,52.04
2023-11-24T16:11:10.836Z,52.35
2023-11-24T16:13:42.371Z,51.51
2023-11-24T16:16:10.869Z,50.89
2023-11-24T16:18:41.635Z,50.93
2023-11-24T16:21:09.624Z,50.82
2023-11-24T16:23:39.055Z,50.87
2023-11-24T16:26:07.156Z,50.81
2023-11-24T16:28:35.288Z,50.39
2023-11-24T16:31:06.395Z,50.70
2023-11-24T16:33:35.927Z,50.25
2023-11-24T16:36:04.959Z,50.59
2023-11-24T16:38:33.290Z,50.39
2023-11-24T16:41:05.623Z,50.29
2023-11-24T16:43:33.698Z,50.12
2023-11-24T16:46:08.198Z,50.04
2023-11-24T16:48:36.401Z,49.88
2023-11-24T16:51:04.812Z,49.63
2023-11-24T16:53:32.869Z,49.30
2023-11-24T16:56:05.030Z,49.26
2023-11-24T16:58:36.249Z,49.02
2023-11-24T17:01:04.289Z,49.00
2023-11-24T17:03:32.667Z,48.71
2023-11-24T17:06:00.712Z,48.65
2023-11-24T17:08:28.748Z,48.79
2023-11-24T17:10:56.698Z,48.65
2023-11-24T17:13:26.202Z,48.59
2023-11-24T17:15:55.080Z,48.25
2023-11-24T17:18:23.130Z,48.13
2023-11-24T17:20:51.351Z,48.22
2023-11-24T17:23:19.299Z,47.80
2023-11-24T17:25:49.320Z,48.00
2023-11-24T17:28:19.013Z,47.78
2023-11-24T17:30:48.477Z,47.96
2023-11-24T17:33:16.532Z,47.43
2023-11-24T17:35:45.695Z,47.43
2023-11-24T17:38:16.253Z,47.42
2023-11-24T17:40:45.212Z,47.32
2023-11-24T17:43:13.256Z,47.46
2023-11-24T17:45:43.505Z,47.46
2023-11-24T17:48:13.053Z,47.16
2023-11-24T17:50:41.002Z,47.18
2023-11-24T17:53:09.974Z,46.94
2023-11-24T17:55:38.011Z,46.87
2023-11-24T17:58:06.006Z,46.69
2023-11-24T18:00:34.076Z,46.75
2023-11-24T18:03:02.143Z,46.68
2023-11-24T18:05:31.621Z,46.55
2023-11-24T18:08:03.662Z,46.59
2023-11-24T18:10:32.019Z,46.35
2023-11-24T18:13:00.346Z,46.45
2023-11-24T18:15:28.457Z,46.17
2023-11-24T18:17:56.707Z,46.21
2023-11-24T18:20:26.160Z,46.10
2023-11-24T18:22:56.096Z,46.06
2023-11-24T18:25:26.700Z,46.22
2023-11-24T18:27:54.719Z,45.92
2023-11-24T18:30:22.826Z,45.83
2023-11-24T18:32:50.949Z,45.76
2023-11-24T18:35:20.024Z,45.57
2023-11-24T18:37:48.009Z,45.52
2023-11-24T18:40:18.196Z,45.54
2023-11-24T18:42:46.872Z,45.46
2023-11-24T18:45:15.398Z,45.45
2023-11-24T18:47:43.407Z,45.50
2023-11-24T18:50:12.262Z,45.86
2023-11-24T18:52:46.429Z,45.92
2023-11-24T18:55:14.599Z,45.56
2023-11-24T18:57:46.862Z,45.14
2023-11-24T19:00:19.891Z,45.00
2023-11-24T19:02:49.096Z,44.36
2023-11-24T19:05:20.432Z,44.36
2023-11-24T19:07:48.958Z,44.49
2023-11-24T19:10:19.623Z,44.48
2023-11-24T19:12:52.360Z,44.41
2023-11-24T19:15:21.187Z,44.46
2023-11-24T19:17:49.486Z,44.33
2023-11-24T19:20:18.943Z,44.23
2023-11-24T19:22:47.342Z,44.35
2023-11-24T19:25:15.641Z,44.52
2023-11-24T19:27:43.684Z,44.55
2023-11-24T19:30:13.927Z,44.15
2023-11-24T19:32:42.086Z,43.70
2023-11-24T19:35:12.359Z,44.40
2023-11-24T19:37:42.131Z,44.34
2023-11-24T19:40:11.292Z,44.34
2023-11-24T19:42:39.309Z,44.21
2023-11-24T19:45:10.306Z,44.34
2023-11-24T19:47:39.793Z,44.27
2023-11-24T19:50:09.078Z,44.47
2023-11-24T19:52:37.131Z,44.34
2023-11-24T19:55:05.718Z,44.36
2023-11-24T19:57:34.756Z,44.37
2023-11-24T20:00:08.774Z,44.48
2023-11-24T20:02:41.023Z,44.30
2023-11-24T20:05:09.926Z,44.40
2023-11-24T20:07:37.921Z,44.34
2023-11-24T20:10:07.963Z,44.52
2023-11-24T20:12:36.048Z,44.51
2023-11-24T20:15:04.189Z,44.41
2023-11-24T20:17:35.114Z,44.39
2023-11-24T20:20:09.824Z,44.27
2023-11-24T20:22:40.788Z,44.55
2023-11-24T20:25:10.246Z,44.47
2023-11-24T20:27:40.957Z,44.38
2023-11-24T20:30:12.948Z,44.25
2023-11-24T20:32:43.239Z,44.56
2023-11-24T20:35:13.251Z,44.54
2023-11-24T20:37:42.210Z,44.46
2023-11-24T20:40:11.234Z,44.54
2023-11-24T20:42:40.156Z,44.67
2023-11-24T20:45:10.068Z,44.78
2023-11-24T20:47:39.322Z,44.93
2023-11-24T20:50:12.609Z,45.05
2023-11-24T20:52:45.028Z,45.17
2023-11-24T20:55:14.275Z,44.64
2023-11-24T20:57:42.446Z,43.93
2023-11-24T21:00:12.508Z,44.29
2023-11-24T21:02:41.627Z,44.54
2023-11-24T21:05:10.451Z,44.18
2023-11-24T21:07:40.756Z,44.12
2023-11-24T21:10:12.633Z,44.54
2023-11-24T21:12:43.015Z,44.38
2023-11-24T21:15:12.131Z,44.56
2023-11-24T21:17:40.490Z,44.60
2023-11-24T21:20:11.186Z,44.48
2023-11-24T21:22:40.845Z,44.53
2023-11-24T21:25:09.421Z,44.35
2023-11-24T21:27:37.428Z,44.02
2023-11-24T21:30:07.657Z,43.87
2023-11-24T21:32:38.519Z,44.31
2023-11-24T21:35:07.662Z,44.47
2023-11-24T21:37:35.769Z,43.73
2023-11-24T21:40:11.996Z,43.74
2023-11-24T21:42:39.969Z,43.83
2023-11-24T21:45:10.958Z,44.10
2023-11-24T21:47:39.075Z,43.86
2023-11-24T21:50:08.148Z,43.77
2023-11-24T21:52:36.861Z,44.07
2023-11-24T21:55:07.962Z,43.94
2023-11-24T21:57:36.107Z,43.95
2023-11-24T22:00:06.524Z,43.71
2023-11-24T22:02:39.336Z,43.76
2023-11-24T22:05:10.598Z,43.88
2023-11-24T22:07:39.038Z,43.63
2023-11-24T22:10:10.613Z,43.46
2023-11-24T22:12:39.318Z,43.71
2023-11-24T22:15:10.804Z,43.44
2023-11-24T22:17:38.900Z,43.49
2023-11-24T22:20:11.902Z,43.28
2023-11-24T22:22:40.905Z,43.51
2023-11-24T22:25:12.058Z,43.61
2023-11-24T22:27:40.133Z,45.06
2023-11-24T22:30:09.314Z,45.58
2023-11-24T22:32:37.419Z,45.57
2023-11-24T22:35:08.032Z,45.37
2023-11-24T22:37:36.538Z,45.09
2023-11-24T22:40:06.643Z,45.08
2023-11-24T22:42:43.286Z,44.87
2023-11-24T22:45:12.661Z,44.63
2023-11-24T22:47:42.925Z,44.77
2023-11-24T22:50:12.139Z,44.64
2023-11-24T22:52:40.357Z,44.43
2023-11-24T22:55:09.145Z,44.39
2023-11-24T22:57:37.946Z,44.39
2023-11-24T23:00:30.126Z,44.57
2023-11-24T23:02:58.503Z,44.32
2023-11-24T23:05:27.127Z,44.22
2023-11-24T23:07:55.225Z,44.39
2023-11-24T23:10:23.517Z,44.18
2023-11-24T23:12:51.492Z,44.37
2023-11-24T23:15:20.849Z,44.00
2023-11-24T23:17:48.987Z,44.24
2023-11-24T23:20:17.020Z,44.13
2023-11-24T23:22:45.090Z,44.44
2023-11-24T23:25:13.206Z,44.62
2023-11-24T23:27:41.669Z,44.24
2023-11-24T23:30:13.600Z,44.00
2023-11-24T23:32:45.092Z,43.89
2023-11-24T23:35:13.468Z,43.90
2023-11-24T23:37:45.113Z,43.49
2023-11-24T23:40:15.214Z,43.52
2023-11-24T23:42:45.668Z,43.77
2023-11-24T23:45:15.163Z,43.69
2023-11-24T23:47:44.941Z,43.40
2023-11-24T23:50:14.023Z,43.41
2023-11-24T23:52:43.195Z,43.41
2023-11-24T23:55:11.273Z,43.56
2023-11-24T23:57:39.268Z,43.19
